Time;durP1;ratioP1;P1;durP2;ratioP2;P2;SDS_P1;SDS_P2;PMS_P1;PMS_P2;Temp;Humidity;BMP_temperature;BMP_pressure;BME280_temperature;BME280_humidity;BME280_pressure;Samples;Min_cycle;Max_cycle;Signal;HPM_P1;HPM_P2
2022/02/15 00:01:23;;;;;;;4.50;2.70;;;;;;;-1.66;67.78;99301.86;104924;1271;75410;-23
2022/02/15 00:03:52;;;;;;;6.80;2.70;;;;;;;-1.84;67.96;99304.73;104892;1271;75779;-23
2022/02/15 00:06:20;;;;;;;4.60;3.00;;;;;;;-2.09;68.34;99305.38;104795;1271;71651;-22
2022/02/15 00:08:49;;;;;;;9.80;2.60;;;;;;;-2.30;68.84;99299.41;104887;1271;61134;-23
2022/02/15 00:11:17;;;;;;;8.10;4.70;;;;;;;-2.47;69.06;99297.44;104955;1271;61091;-23
2022/02/15 00:13:47;;;;;;;6.30;3.10;;;;;;;-2.61;69.44;99293.52;105163;1271;75492;-23
2022/02/15 00:16:16;;;;;;;6.00;3.60;;;;;;;-2.71;69.74;99293.45;105162;1271;73214;-23
2022/02/15 00:18:45;;;;;;;3.90;2.10;;;;;;;-2.57;69.43;99290.19;105107;1271;74256;-23
2022/02/15 00:21:13;;;;;;;7.80;3.50;;;;;;;-1.99;67.96;99295.26;105055;1271;61151;-23
2022/02/15 00:23:41;;;;;;;5.40;2.80;;;;;;;-1.84;66.45;99283.80;104879;1273;60981;-23
2022/02/15 00:26:10;;;;;;;8.70;4.10;;;;;;;-1.88;66.18;99285.42;105091;1271;74033;-23
2022/02/15 00:28:38;;;;;;;7.40;2.30;;;;;;;-2.05;66.52;99282.96;105123;1271;76498;-23
2022/02/15 00:31:07;;;;;;;5.30;3.40;;;;;;;-2.22;66.72;99275.25;105149;1271;72634;-22
2022/02/15 00:33:35;;;;;;;4.00;2.50;;;;;;;-2.44;67.14;99277.13;105160;1271;61150;-23
2022/02/15 00:36:05;;;;;;;11.20;5.20;;;;;;;-2.59;67.23;99270.67;105128;1273;62137;-22
2022/02/15 00:38:33;;;;;;;6.90;2.70;;;;;;;-2.66;67.15;99270.52;105145;1271;75570;-23
2022/02/15 00:41:07;;;;;;;9.70;3.40;;;;;;;-2.75;67.19;99267.85;105093;1271;75908;-23
2022/02/15 00:43:35;;;;;;;12.80;3.40;;;;;;;-2.84;67.34;99266.35;105110;1271;74523;-23
2022/02/15 00:46:04;;;;;;;8.20;4.20;;;;;;;-2.66;67.44;99263.04;104896;1271;61658;-23
2022/02/15 00:48:33;;;;;;;3.70;2.50;;;;;;;-2.01;65.19;99259.39;104936;1271;61114;-23
2022/02/15 00:51:01;;;;;;;4.20;2.70;;;;;;;-1.80;63.99;99257.13;104884;1271;75523;-23
2022/02/15 00:53:30;;;;;;;7.80;3.40;;;;;;;-1.85;63.81;99255.05;105081;1271;76028;-23
2022/02/15 00:55:58;;;;;;;5.20;2.90;;;;;;;-2.06;63.75;99254.06;105150;1271;74479;-23
2022/02/15 00:58:27;;;;;;;7.70;3.40;;;;;;;-2.26;64.47;99254.60;104947;1274;61060;-23
2022/02/15 01:00:55;;;;;;;3.00;1.80;;;;;;;-2.45;64.94;99251.67;104956;1271;61034;-23
2022/02/15 01:03:24;;;;;;;11.20;4.30;;;;;;;-2.63;65.44;99249.72;104797;1271;74461;-22
2022/02/15 01:05:52;;;;;;;9.10;4.70;;;;;;;-2.77;65.75;99247.86;105044;1271;76363;-23
2022/02/15 01:08:20;;;;;;;8.30;3.50;;;;;;;-2.90;65.88;99250.02;105115;1271;74477;-23
2022/02/15 01:10:49;;;;;;;5.90;2.80;;;;;;;-2.98;65.88;99247.46;105187;1271;61236;-23
2022/02/15 01:13:18;;;;;;;8.50;3.80;;;;;;;-3.01;65.67;99244.13;105167;1272;61010;-23
2022/02/15 01:15:46;;;;;;;7.30;3.10;;;;;;;-3.00;65.44;99246.48;105122;1271;75299;-23
2022/02/15 01:18:15;;;;;;;6.00;2.60;;;;;;;-3.06;65.83;99244.59;104948;1271;76255;-23
2022/02/15 01:20:44;;;;;;;2.90;2.00;;;;;;;-3.15;66.15;99244.61;104821;1271;74544;-23
2022/02/15 01:23:12;;;;;;;13.60;4.10;;;;;;;-3.24;66.45;99243.80;104959;1271;62037;-23
2022/02/15 01:25:41;;;;;;;11.60;4.50;;;;;;;-2.93;65.82;99241.74;105067;1271;62098;-23
2022/02/15 01:28:11;;;;;;;4.30;2.10;;;;;;;-2.30;63.91;99245.33;104787;1274;75596;-24
2022/02/15 01:30:40;;;;;;;5.90;2.10;;;;;;;-2.17;62.85;99241.23;104890;1271;75069;-23
2022/02/15 01:33:09;;;;;;;4.90;3.00;;;;;;;-2.27;62.94;99239.98;104936;1271;74454;-23
2022/02/15 01:35:37;;;;;;;5.10;2.60;;;;;;;-2.45;63.20;99240.79;104723;1274;60950;-23
2022/02/15 01:38:05;;;;;;;4.10;2.00;;;;;;;-2.64;63.53;99238.52;105059;1271;61144;-22
2022/02/15 01:40:34;;;;;;;8.00;3.10;;;;;;;-2.79;63.73;99238.88;105136;1271;75741;-23
2022/02/15 01:43:04;;;;;;;6.90;3.10;;;;;;;-2.92;64.08;99233.40;105109;1271;75966;-23
2022/02/15 01:45:33;;;;;;;5.80;2.00;;;;;;;-3.03;64.31;99236.35;105145;1274;74320;-23
2022/02/15 01:48:02;;;;;;;4.20;2.00;;;;;;;-3.13;64.37;99235.40;105120;1271;61268;-23
2022/02/15 01:50:31;;;;;;;3.60;3.20;;;;;;;-3.22;64.99;99232.21;105169;1271;61460;-22
2022/02/15 01:52:59;;;;;;;7.80;3.60;;;;;;;-3.30;65.03;99231.86;105058;1271;75526;-25
2022/02/15 01:55:28;;;;;;;11.80;3.10;;;;;;;-3.35;65.16;99235.70;104851;1271;75060;-23
2022/02/15 01:57:57;;;;;;;5.80;2.80;;;;;;;-3.45;65.46;99235.23;104923;1271;74146;-23
2022/02/15 02:00:28;;;;;;;4.00;2.50;;;;;;;-3.58;65.89;99239.77;104905;1271;61145;-22
2022/02/15 02:03:10;;;;;;;4.10;2.70;;;;;;;-3.74;66.28;99231.75;104782;1271;61027;-22
2022/02/15 02:05:48;;;;;;;5.90;2.70;;;;;;;-3.84;66.68;99230.09;104910;1271;74256;-24
2022/02/15 02:08:28;;;;;;;8.70;2.40;;;;;;;-3.62;66.75;99230.14;104796;1271;75943;-23
2022/02/15 02:10:57;;;;;;;4.80;2.30;;;;;;;-2.81;64.82;99232.46;105019;1272;73192;-23
2022/02/15 02:13:51;;;;;;;5.60;2.20;;;;;;;-2.54;63.45;99231.48;105061;1274;61088;-23
2022/02/15 02:16:30;;;;;;;2.40;1.30;;;;;;;-2.65;63.45;99233.60;105054;1271;62149;-23
2022/02/15 02:19:08;;;;;;;3.90;2.30;;;;;;;-2.88;63.87;99231.79;105113;1271;75376;-23
2022/02/15 02:21:40;;;;;;;4.80;2.00;;;;;;;-3.07;64.34;99233.56;105130;1271;76165;-23
2022/02/15 02:24:13;;;;;;;4.40;2.40;;;;;;;-3.29;64.82;99232.36;105137;1271;73194;-23
2022/02/15 02:26:44;;;;;;;5.70;1.60;;;;;;;-3.52;65.70;99234.86;105188;1271;60988;-23
2022/02/15 02:29:13;;;;;;;4.00;2.40;;;;;;;-3.71;66.08;99237.30;105140;1271;62303;-23
2022/02/15 02:31:44;;;;;;;3.70;1.70;;;;;;;-3.85;66.44;99235.20;104965;1271;74705;-23
2022/02/15 02:34:15;;;;;;;8.00;2.60;;;;;;;-3.97;66.73;99237.80;104706;1271;73222;-23
2022/02/15 02:36:45;;;;;;;6.80;3.00;;;;;;;-4.06;67.05;99236.42;104804;1271;70709;-23
2022/02/15 02:39:14;;;;;;;5.00;3.20;;;;;;;-4.16;67.52;99230.02;104765;1271;61388;-23
2022/02/15 02:41:44;;;;;;;3.10;2.20;;;;;;;-4.21;67.68;99228.08;105152;1271;61117;-23
2022/02/15 02:44:12;;;;;;;4.90;3.20;;;;;;;-4.27;67.79;99228.01;104860;1271;75555;-23
2022/02/15 02:46:41;;;;;;;3.30;1.20;;;;;;;-4.13;68.25;99225.02;104796;1274;76021;-23
2022/02/15 02:49:09;;;;;;;2.20;1.50;;;;;;;-3.33;66.47;99229.54;104859;1271;73423;-23
2022/02/15 02:51:39;;;;;;;6.60;2.50;;;;;;;-2.86;64.68;99224.41;105017;1270;61029;-24
2022/02/15 02:54:07;;;;;;;3.40;1.90;;;;;;;-2.83;64.13;99227.41;104810;1274;61757;-23
2022/02/15 02:56:39;;;;;;;4.30;2.70;;;;;;;-3.01;64.09;99221.20;104805;1271;74104;-23
2022/02/15 02:59:08;;;;;;;1.80;1.50;;;;;;;-3.17;64.36;99223.62;104976;1271;76003;-23
2022/02/15 03:01:36;;;;;;;3.90;2.10;;;;;;;-3.34;64.93;99222.94;104790;1271;73821;-23
2022/02/15 03:04:05;;;;;;;4.80;2.60;;;;;;;-3.53;65.42;99224.04;104862;1271;61147;-24
2022/02/15 03:06:34;;;;;;;4.90;3.00;;;;;;;-3.73;65.87;99224.61;104796;1271;61127;-23
2022/02/15 03:09:04;;;;;;;9.80;2.60;;;;;;;-3.84;66.33;99223.30;104807;1271;75505;-23
2022/02/15 03:11:33;;;;;;;5.30;2.40;;;;;;;-3.93;66.78;99224.66;104896;1270;76178;-23
2022/02/15 03:14:03;;;;;;;6.60;2.90;;;;;;;-4.00;67.05;99223.27;104913;1271;72456;-23
2022/02/15 03:16:43;;;;;;;7.00;2.90;;;;;;;-4.07;67.16;99223.05;104961;1271;61112;-23
2022/02/15 03:19:11;;;;;;;6.80;3.10;;;;;;;-4.14;67.63;99229.29;104848;1271;61154;-23
2022/02/15 03:21:40;;;;;;;6.10;2.70;;;;;;;-4.22;67.37;99230.98;104817;1271;75327;-23
2022/02/15 03:24:09;;;;;;;8.50;2.90;;;;;;;-4.30;67.87;99230.42;104910;1271;74445;-23
2022/02/15 03:26:38;;;;;;;4.80;1.90;;;;;;;-4.28;68.26;99228.68;104891;1271;74377;-23
2022/02/15 03:29:07;;;;;;;4.90;2.40;;;;;;;-3.60;67.01;99232.14;104901;1271;61259;-23
2022/02/15 03:31:38;;;;;;;4.00;2.30;;;;;;;-2.99;64.74;99229.83;104888;1271;62164;-23
2022/02/15 03:34:07;;;;;;;2.30;1.50;;;;;;;-2.89;64.19;99229.08;104650;1271;75594;-24
2022/02/15 03:36:36;;;;;;;5.30;2.20;;;;;;;-2.97;64.17;99225.19;104918;1271;74409;-23
2022/02/15 03:39:08;;;;;;;4.20;2.10;;;;;;;-3.14;64.57;99225.92;104943;1271;75677;-23
2022/02/15 03:44:32;;;;;;;4.40;2.30;;;;;;;-3.58;65.70;99223.98;105113;1271;61217;-23
2022/02/15 03:47:04;;;;;;;7.30;3.70;;;;;;;-3.76;66.41;99218.05;105160;1271;74543;-23
2022/02/15 03:49:37;;;;;;;7.70;3.70;;;;;;;-3.91;66.91;99211.55;105142;1271;75695;-23
2022/02/15 03:52:07;;;;;;;5.00;2.40;;;;;;;-4.04;67.17;99211.46;105126;1271;74537;-24
2022/02/15 03:54:35;;;;;;;4.20;2.70;;;;;;;-4.17;67.83;99213.73;105121;1271;61960;-23
2022/02/15 03:57:04;;;;;;;12.90;2.70;;;;;;;-4.30;68.18;99210.08;105101;1271;61459;-23
2022/02/15 03:59:33;;;;;;;7.30;3.90;;;;;;;-4.37;68.74;99209.35;105158;1271;74500;-23
2022/02/15 04:02:02;;;;;;;5.20;2.10;;;;;;;-4.44;69.06;99206.43;104775;1271;75222;-23
2022/02/15 04:04:32;;;;;;;10.10;4.50;;;;;;;-4.51;68.89;99208.08;104803;1272;74359;-23
2022/02/15 04:07:01;;;;;;;8.50;3.80;;;;;;;-4.58;69.40;99199.73;104884;1271;61879;-23
2022/02/15 04:09:30;;;;;;;17.60;8.30;;;;;;;-4.04;68.82;99200.27;104802;1274;62350;-23
2022/02/15 04:11:59;;;;;;;17.00;7.20;;;;;;;-3.32;66.13;99202.69;105037;1271;72836;-23
2022/02/15 04:14:35;;;;;;;17.40;6.00;;;;;;;-3.15;65.09;99203.34;105123;1271;75222;-23
2022/02/15 04:17:06;;;;;;;8.00;3.90;;;;;;;-3.28;65.18;99199.89;105105;1272;74577;-23
2022/02/15 04:19:35;;;;;;;27.50;11.40;;;;;;;-3.48;65.41;99201.33;105145;1271;61032;-23
2022/02/15 04:22:04;;;;;;;13.40;7.10;;;;;;;-3.68;66.01;99200.08;105152;1271;61057;-23
2022/02/15 04:24:33;;;;;;;28.30;13.30;;;;;;;-3.91;65.96;99199.68;105142;1271;75472;-23
2022/02/15 04:27:02;;;;;;;15.40;7.10;;;;;;;-4.12;66.69;99200.75;105145;1271;74912;-23
2022/02/15 04:29:31;;;;;;;25.40;11.70;;;;;;;-4.29;67.53;99200.90;105142;1271;74344;-23
2022/02/15 04:32:00;;;;;;;11.80;7.30;;;;;;;-4.41;67.78;99201.13;105090;1272;61103;-23
2022/02/15 04:34:32;;;;;;;34.90;14.60;;;;;;;-4.49;68.15;99201.10;105181;1271;61070;-24
2022/02/15 04:37:01;;;;;;;27.90;9.80;;;;;;;-4.60;68.47;99199.08;105127;1271;75073;-23
2022/02/15 04:39:32;;;;;;;11.70;6.20;;;;;;;-4.67;68.63;99193.44;105042;1274;74983;-23
2022/02/15 04:42:10;;;;;;;17.10;7.40;;;;;;;-4.44;68.58;99192.88;105183;1271;73004;-23
2022/02/15 04:44:39;;;;;;;16.40;8.00;;;;;;;-3.71;66.16;99191.14;105148;1271;61102;-23
2022/02/15 04:47:09;;;;;;;11.10;6.20;;;;;;;-3.40;64.85;99191.68;105148;1271;61441;-23
2022/02/15 04:49:38;;;;;;;14.70;5.70;;;;;;;-3.43;64.62;99192.08;104983;1271;192466;-23
2022/02/15 04:52:07;;;;;;;17.30;7.70;;;;;;;-3.58;64.75;99195.80;105198;1271;75245;-23
2022/02/15 04:54:35;;;;;;;20.00;8.10;;;;;;;-3.76;65.25;99200.41;105162;1271;74171;-23
2022/02/15 04:57:04;;;;;;;26.90;10.00;;;;;;;-3.95;65.55;99202.31;105102;1271;61163;-25
2022/02/15 04:59:35;;;;;;;10.50;4.20;;;;;;;-4.12;66.29;99205.34;104810;1272;61104;-24
2022/02/15 05:02:05;;;;;;;9.30;4.00;;;;;;;-4.30;66.63;99204.82;104814;1274;74422;-23
2022/02/15 05:04:49;;;;;;;4.70;2.70;;;;;;;-4.48;66.98;99207.69;104789;1272;75747;-24
2022/02/15 05:07:25;;;;;;;4.30;2.10;;;;;;;-4.63;67.77;99212.00;104759;1274;74348;-24
2022/02/15 05:09:54;;;;;;;8.40;2.70;;;;;;;-4.74;68.31;99215.25;104795;1271;61728;-24
2022/02/15 05:12:22;;;;;;;17.10;7.40;;;;;;;-4.80;68.39;99210.92;104808;1272;61051;-24
2022/02/15 05:14:52;;;;;;;14.00;4.70;;;;;;;-4.84;68.49;99213.36;104943;1271;75621;-23
2022/02/15 05:17:27;;;;;;;11.10;3.70;;;;;;;-4.71;68.75;99217.05;105174;1271;75159;-23
2022/02/15 05:19:57;;;;;;;8.20;4.10;;;;;;;-3.85;67.07;99221.29;105128;1271;74343;-23
2022/02/15 05:22:25;;;;;;;5.20;2.90;;;;;;;-3.34;65.22;99225.15;105171;1272;61073;-23
2022/02/15 05:24:56;;;;;;;7.00;3.30;;;;;;;-3.30;64.68;99224.23;105119;1271;61798;-22
2022/02/15 05:27:49;;;;;;;5.70;2.50;;;;;;;-3.50;64.85;99221.26;105128;1271;75441;-23
2022/02/15 05:30:19;;;;;;;9.10;3.20;;;;;;;-3.74;65.37;99222.23;105147;1271;76506;-23
2022/02/15 05:33:04;;;;;;;9.10;2.90;;;;;;;-3.94;65.84;99220.61;105153;1271;74203;-23
2022/02/15 05:35:34;;;;;;;7.50;1.70;;;;;;;-4.11;66.38;99219.56;105039;1271;61015;-23
2022/02/15 05:38:02;;;;;;;4.60;2.70;;;;;;;-4.25;66.86;99218.98;105178;1271;61797;-22
2022/02/15 05:40:38;;;;;;;11.80;4.70;;;;;;;-4.35;67.66;99218.80;105048;1271;74312;-23
2022/02/15 05:43:13;;;;;;;14.00;3.20;;;;;;;-4.43;68.01;99223.71;104903;1271;75177;-24
2022/02/15 05:45:48;;;;;;;6.40;3.00;;;;;;;-4.51;68.41;99225.52;104922;1274;73427;-22
2022/02/15 05:48:24;;;;;;;2.10;1.10;;;;;;;-4.53;68.80;99223.52;105133;1271;61131;-23
2022/02/15 05:50:55;;;;;;;3.80;1.80;;;;;;;-4.54;68.84;99219.99;105119;1271;61766;-23
2022/02/15 05:53:29;;;;;;;16.80;6.10;;;;;;;-4.06;68.06;99221.84;104899;1271;75749;-23
2022/02/15 05:55:59;;;;;;;18.70;5.90;;;;;;;-3.34;66.16;99226.02;104797;1271;74652;-23
2022/02/15 05:58:34;;;;;;;9.50;4.50;;;;;;;-3.10;64.88;99231.43;104884;1272;73616;-23
2022/02/15 06:01:03;;;;;;;7.40;2.90;;;;;;;-3.18;65.12;99226.86;105008;1271;61035;-23
2022/02/15 06:06:22;;;;;;;7.20;2.80;;;;;;;-3.49;66.00;99225.30;104939;1271;75100;-23
2022/02/15 06:08:54;;;;;;;7.50;3.30;;;;;;;-3.60;66.34;99222.14;104940;1271;75823;-22
2022/02/15 06:11:24;;;;;;;8.30;2.60;;;;;;;-3.68;66.84;99222.64;105101;1271;75404;-23
2022/02/15 06:15:58;;;;;;;2.90;2.00;;;;;;;-3.73;67.49;99217.13;101937;1307;600832;-25
2022/02/15 06:18:34;;;;;;;4.70;2.20;;;;;;;-3.75;67.32;99215.98;104462;1281;61100;-23
2022/02/15 06:21:04;;;;;;;6.10;2.10;;;;;;;-3.73;67.52;99212.56;104675;1280;61800;-23
2022/02/15 06:23:33;;;;;;;7.30;3.20;;;;;;;-3.70;67.51;99209.45;104628;1281;72358;-22
2022/02/15 06:26:09;;;;;;;7.90;3.20;;;;;;;-3.65;67.73;99210.19;104603;1281;76045;-23
2022/02/15 06:29:07;;;;;;;3.40;2.00;;;;;;;-3.59;67.95;99211.09;103783;1281;223611;-23
2022/02/15 06:31:40;;;;;;;;;;;;;;;-3.56;67.85;99209.00;104734;1277;61125;-23
2022/02/15 06:34:11;;;;;;;5.10;3.40;;;;;;;-3.54;67.82;99208.27;104723;1277;61407;-23
2022/02/15 06:36:40;;;;;;;7.10;3.00;;;;;;;-3.50;68.32;99208.50;104512;1280;73112;-24
2022/02/15 06:39:09;;;;;;;4.00;2.50;;;;;;;-2.93;67.26;99206.23;104662;1278;76072;-24
2022/02/15 06:41:40;;;;;;;2.70;1.60;;;;;;;-2.14;64.67;99202.56;104419;1278;73560;-24
2022/02/15 06:44:12;;;;;;;4.80;2.50;;;;;;;-1.83;63.52;99206.33;104535;1277;61156;-24
2022/02/15 06:46:44;;;;;;;7.80;3.50;;;;;;;-1.81;63.43;99203.20;104739;1277;61019;-22
2022/02/15 06:49:41;;;;;;;5.90;4.00;;;;;;;-1.91;64.03;99200.23;104711;1277;72414;-23
2022/02/15 06:52:35;;;;;;;10.60;4.70;;;;;;;-1.98;64.26;99199.42;104417;1281;76041;-23
2022/02/15 06:55:43;;;;;;;7.20;3.30;;;;;;;-2.06;64.77;99199.64;104560;1278;73032;-23
2022/02/15 06:58:11;;;;;;;8.30;4.40;;;;;;;-2.08;64.78;99192.38;104462;1278;61125;-23
2022/02/15 07:00:41;;;;;;;6.90;3.70;;;;;;;-2.05;65.32;99191.28;104657;1278;61092;-23
2022/02/15 07:03:09;;;;;;;6.80;2.80;;;;;;;-2.02;65.32;99187.62;104597;1278;74792;-22
2022/02/15 07:05:37;;;;;;;6.40;3.20;;;;;;;-1.94;65.44;99185.18;104607;1278;74976;-24
2022/02/15 07:08:06;;;;;;;5.50;2.80;;;;;;;-1.84;65.50;99177.25;104595;1277;74351;-22
2022/02/15 07:10:36;;;;;;;6.40;2.70;;;;;;;-1.73;64.89;99172.83;104373;1281;61102;-23
2022/02/15 07:13:07;;;;;;;6.10;2.80;;;;;;;-1.63;64.62;99172.89;104599;1278;61001;-23
2022/02/15 07:15:39;;;;;;;4.10;2.00;;;;;;;-1.47;64.85;99178.04;104713;1277;74436;-23
2022/02/15 07:18:15;;;;;;;8.70;3.50;;;;;;;-1.28;63.93;99173.05;104645;1277;76129;-24
2022/02/15 07:21:22;;;;;;;5.80;2.60;;;;;;;-1.09;63.04;99174.00;104224;1284;73458;-24
2022/02/15 07:24:29;;;;;;;5.20;2.50;;;;;;;-0.92;62.84;99176.37;104273;1283;61109;-24
2022/02/15 07:27:22;;;;;;;4.60;2.30;;;;;;;-0.72;62.44;99178.62;105062;1271;61210;-23
2022/02/15 07:29:55;;;;;;;7.20;2.70;;;;;;;-0.54;62.31;99177.67;105045;1271;74804;-24
2022/02/15 07:32:50;;;;;;;6.60;3.50;;;;;;;-0.41;61.53;99171.79;105298;1271;74909;-23
2022/02/15 07:35:19;;;;;;;3.90;2.90;;;;;;;-0.37;60.68;99165.52;105124;1271;74470;-23
2022/02/15 07:37:50;;;;;;;7.30;2.40;;;;;;;-0.30;61.26;99168.50;105272;1271;61219;-23
2022/02/15 07:40:24;;;;;;;2.30;1.70;;;;;;;-0.15;61.28;99171.05;104924;1271;61079;-23
2022/02/15 07:42:52;;;;;;;9.80;2.70;;;;;;;0.01;61.26;99175.63;105409;1271;74727;-23
2022/02/15 07:45:22;;;;;;;4.10;2.40;;;;;;;0.17;61.05;99172.98;105403;1271;74945;-24
2022/02/15 07:47:51;;;;;;;4.20;2.30;;;;;;;0.24;60.18;99171.73;105168;1272;74360;-22
2022/02/15 07:50:21;;;;;;;4.00;2.20;;;;;;;0.34;60.26;99170.49;105204;1271;61088;-22
2022/02/15 07:52:57;;;;;;;4.80;2.80;;;;;;;0.47;60.27;99167.61;105182;1272;61053;-24
2022/02/15 07:55:26;;;;;;;5.10;2.50;;;;;;;0.62;60.30;99169.61;105161;1271;73103;-24
2022/02/15 07:58:00;;;;;;;6.50;2.00;;;;;;;0.72;60.06;99168.17;105342;1270;75729;-22
2022/02/15 08:00:30;;;;;;;5.40;2.40;;;;;;;0.75;59.77;99167.04;105153;1271;73469;-22
2022/02/15 08:02:59;;;;;;;4.60;2.80;;;;;;;0.81;59.87;99162.73;105445;1270;61110;-22
2022/02/15 08:05:28;;;;;;;3.90;2.30;;;;;;;0.79;60.08;99162.29;105379;1271;61036;-22
2022/02/15 08:08:04;;;;;;;3.60;2.40;;;;;;;0.80;59.96;99165.33;105289;1271;73639;-24
2022/02/15 08:10:33;;;;;;;9.00;4.10;;;;;;;0.87;60.14;99162.67;105276;1270;75738;-22
2022/02/15 08:13:03;;;;;;;3.70;2.60;;;;;;;0.94;60.12;99169.91;105404;1271;72875;-22
2022/02/15 08:15:33;;;;;;;6.50;3.20;;;;;;;1.03;60.39;99167.14;105185;1271;61182;-22
2022/02/15 08:18:02;;;;;;;5.80;2.80;;;;;;;1.20;59.81;99171.08;105225;1271;61159;-22
2022/02/15 08:20:31;;;;;;;3.30;2.40;;;;;;;1.44;59.82;99173.36;105377;1271;74616;-22
2022/02/15 08:22:59;;;;;;;5.70;2.90;;;;;;;1.57;58.95;99174.00;105195;1271;74355;-22
2022/02/15 08:25:28;;;;;;;5.90;2.70;;;;;;;1.70;58.88;99176.36;105191;1271;73113;-22
2022/02/15 08:27:57;;;;;;;3.60;2.50;;;;;;;1.89;58.46;99168.37;105124;1271;61080;-23
2022/02/15 08:30:26;;;;;;;6.10;3.00;;;;;;;1.91;58.18;99167.90;104963;1271;61281;-22
2022/02/15 08:32:55;;;;;;;4.90;2.60;;;;;;;2.01;57.98;99172.81;105315;1270;75024;-22
2022/02/15 08:35:24;;;;;;;4.40;2.40;;;;;;;2.10;57.89;99168.30;105405;1271;75946;-23
2022/02/15 08:37:54;;;;;;;4.00;2.70;;;;;;;2.21;57.94;99162.83;105386;1271;74587;-22
2022/02/15 08:40:23;;;;;;;4.10;2.70;;;;;;;2.21;57.91;99156.30;105123;1271;61153;-22
2022/02/15 08:43:10;;;;;;;7.70;3.30;;;;;;;2.30;57.60;99160.04;105357;1271;61096;-22
2022/02/15 08:45:39;;;;;;;3.70;2.90;;;;;;;2.30;58.35;99161.08;105387;1271;74547;-22
2022/02/15 08:48:08;;;;;;;6.20;2.50;;;;;;;2.41;57.68;99164.51;105204;1271;74793;-22
2022/02/15 08:50:38;;;;;;;5.10;3.00;;;;;;;2.50;57.17;99167.02;105387;1271;72554;-22
2022/02/15 08:53:07;;;;;;;5.20;3.00;;;;;;;2.64;56.99;99165.38;105136;1271;61156;-22
2022/02/15 08:55:35;;;;;;;7.40;4.30;;;;;;;2.71;57.10;99155.75;104974;1271;61066;-24
2022/02/15 08:58:04;;;;;;;4.30;2.70;;;;;;;2.74;57.21;99159.25;104930;1271;72213;-24
2022/02/15 09:00:33;;;;;;;5.00;3.10;;;;;;;2.87;56.78;99155.55;104976;1271;74613;-24
2022/02/15 09:03:02;;;;;;;7.80;3.90;;;;;;;2.88;56.74;99150.88;104924;1271;73414;-24
2022/02/15 09:05:31;;;;;;;6.40;3.30;;;;;;;2.92;56.78;99151.85;104928;1271;61043;-24
2022/02/15 09:08:06;;;;;;;7.70;4.10;;;;;;;3.09;56.37;99151.02;105063;1271;60981;-24
2022/02/15 09:10:37;;;;;;;6.20;3.40;;;;;;;3.09;56.04;99159.42;104966;1270;72612;-22
2022/02/15 09:13:07;;;;;;;4.70;3.00;;;;;;;3.12;56.36;99172.87;105044;1271;74832;-22
2022/02/15 09:15:35;;;;;;;11.90;3.70;;;;;;;3.26;55.83;99175.08;105152;1271;73494;-22
2022/02/15 09:18:03;;;;;;;6.70;3.80;;;;;;;3.32;55.77;99168.27;105441;1270;61149;-22
2022/02/15 09:20:32;;;;;;;8.50;4.20;;;;;;;3.37;55.77;99164.60;105240;1271;61025;-22
2022/02/15 09:23:01;;;;;;;7.30;4.00;;;;;;;3.49;55.52;99161.10;105029;1271;73714;-22
2022/02/15 09:25:30;;;;;;;5.80;3.40;;;;;;;3.54;55.57;99154.65;105029;1271;76365;-22
2022/02/15 09:27:58;;;;;;;4.70;3.30;;;;;;;3.56;54.88;99162.83;105025;1271;72977;-22
2022/02/15 09:30:27;;;;;;;6.20;4.20;;;;;;;3.62;55.31;99159.60;105019;1271;61789;-22
2022/02/15 09:32:55;;;;;;;7.40;3.80;;;;;;;3.61;54.29;99150.89;104927;1271;62028;-22
2022/02/15 09:35:24;;;;;;;4.00;3.20;;;;;;;3.46;55.31;99165.04;104890;1271;72840;-22
2022/02/15 09:37:52;;;;;;;6.60;3.40;;;;;;;3.53;55.41;99153.14;105051;1271;75902;-22
2022/02/15 09:40:21;;;;;;;6.20;4.00;;;;;;;3.71;54.96;99146.95;105134;1271;74476;-22
2022/02/15 09:42:50;;;;;;;18.60;5.80;;;;;;;3.70;54.85;99143.02;105142;1272;61206;-22
2022/02/15 09:45:18;;;;;;;7.40;4.40;;;;;;;3.71;54.87;99139.39;105192;1272;61252;-22
2022/02/15 09:47:48;;;;;;;4.90;3.50;;;;;;;3.94;55.18;99139.92;105421;1271;74636;-22
2022/02/15 09:50:16;;;;;;;6.90;4.00;;;;;;;4.11;54.36;99136.13;105182;1272;75721;-24
2022/02/15 09:52:45;;;;;;;7.50;3.60;;;;;;;4.18;54.13;99133.48;105401;1271;72781;-22
2022/02/15 09:55:15;;;;;;;5.00;3.30;;;;;;;4.23;54.09;99127.39;105136;1272;61127;-22
2022/02/15 09:57:44;;;;;;;6.60;3.40;;;;;;;4.31;53.87;99123.52;105188;1271;61222;-22
2022/02/15 10:00:14;;;;;;;7.10;3.80;;;;;;;4.46;54.12;99128.39;105175;1271;74803;-22
2022/02/15 10:02:43;;;;;;;7.50;3.50;;;;;;;4.71;53.50;99125.13;105122;1271;75956;-22
2022/02/15 10:05:14;;;;;;;6.30;3.40;;;;;;;4.74;53.07;99115.36;105405;1271;74368;-22
2022/02/15 10:07:57;;;;;;;4.70;3.20;;;;;;;4.87;52.84;99122.85;105151;1271;61097;-22
2022/02/15 10:10:36;;;;;;;8.10;3.90;;;;;;;4.81;53.06;99116.13;105136;1272;61188;-24
2022/02/15 10:13:11;;;;;;;6.70;4.00;;;;;;;4.51;53.67;99111.27;104700;1272;73384;-23
2022/02/15 10:15:41;;;;;;;9.40;4.40;;;;;;;4.37;53.82;99112.60;104989;1271;76058;-23
2022/02/15 10:18:20;;;;;;;5.70;3.90;;;;;;;4.51;53.40;99118.14;104975;1271;74272;-22
2022/02/15 10:20:53;;;;;;;5.30;3.40;;;;;;;4.35;53.37;99118.69;104787;1272;61071;-23
2022/02/15 10:23:29;;;;;;;8.70;4.80;;;;;;;4.72;53.31;99124.56;104808;1272;61160;-22
2022/02/15 10:25:58;;;;;;;8.00;4.20;;;;;;;4.78;52.40;99119.41;104830;1272;73844;-23
2022/02/15 10:28:35;;;;;;;7.10;4.50;;;;;;;4.92;52.65;99116.41;104989;1271;75323;-22
2022/02/15 10:31:04;;;;;;;10.80;4.40;;;;;;;4.71;52.06;99108.98;104933;1271;72812;-23
2022/02/15 10:33:42;;;;;;;7.00;4.50;;;;;;;4.49;52.96;99108.11;104965;1271;61631;-23
2022/02/15 10:36:14;;;;;;;5.70;3.70;;;;;;;4.77;53.02;99114.33;104973;1272;61122;-23
2022/02/15 10:38:49;;;;;;;8.20;4.20;;;;;;;4.97;52.67;99109.59;105216;1271;75612;-23
2022/02/15 10:41:21;;;;;;;8.70;3.70;;;;;;;5.16;52.21;99103.98;105070;1271;76114;-23
2022/02/15 10:44:03;;;;;;;4.20;2.90;;;;;;;5.20;51.64;99106.70;104848;1271;73060;-23
2022/02/15 10:46:31;;;;;;;7.10;3.10;;;;;;;5.45;51.99;99107.64;104820;1272;61150;-23
2022/02/15 10:49:00;;;;;;;10.60;5.00;;;;;;;5.66;50.92;99108.32;104981;1271;61191;-23
2022/02/15 10:51:29;;;;;;;7.60;4.60;;;;;;;5.53;51.16;99100.65;104960;1272;75568;-23
2022/02/15 10:53:59;;;;;;;8.10;3.60;;;;;;;5.58;51.29;99105.20;105212;1271;73905;-23
2022/02/15 10:56:33;;;;;;;5.50;2.80;;;;;;;5.57;51.07;99102.49;105385;1271;73373;-23
2022/02/15 10:59:03;;;;;;;5.90;3.80;;;;;;;5.68;51.12;99104.25;104927;1272;61156;-24
2022/02/15 11:01:32;;;;;;;8.40;4.10;;;;;;;5.69;50.92;99099.86;104798;1272;62034;-23
2022/02/15 11:04:02;;;;;;;7.10;3.70;;;;;;;5.74;50.90;99099.19;105319;1271;74710;-23
2022/02/15 11:06:31;;;;;;;14.70;4.90;;;;;;;5.79;50.51;99097.35;105022;1271;75978;-23
2022/02/15 11:09:03;;;;;;;8.10;5.20;;;;;;;5.60;50.82;99094.56;105136;1271;74486;-23
2022/02/15 11:11:38;;;;;;;11.90;4.10;;;;;;;5.64;51.12;99095.70;104812;1272;62181;-24
2022/02/15 11:14:06;;;;;;;10.90;4.20;;;;;;;5.74;50.76;99088.52;104817;1272;61247;-24
2022/02/15 11:16:36;;;;;;;6.60;3.60;;;;;;;5.80;51.05;99088.02;104722;1272;74915;-23
2022/02/15 11:19:12;;;;;;;8.70;4.20;;;;;;;5.87;50.89;99088.79;105021;1271;74548;-23
2022/02/15 11:21:40;;;;;;;7.50;3.40;;;;;;;6.09;50.45;99093.52;104796;1271;73654;-23
2022/02/15 11:24:09;;;;;;;8.80;4.50;;;;;;;6.11;50.24;99087.22;104762;1271;61022;-24
2022/02/15 11:26:42;;;;;;;8.00;4.70;;;;;;;5.73;50.50;99087.91;104960;1271;61147;-24
2022/02/15 11:29:24;;;;;;;6.70;4.20;;;;;;;5.31;51.79;99082.99;104974;1271;74359;-23
2022/02/15 11:31:55;;;;;;;6.80;2.90;;;;;;;5.51;52.10;99086.50;105062;1271;75124;-23
2022/02/15 11:34:31;;;;;;;6.20;3.60;;;;;;;5.76;51.28;99079.30;104968;1271;74399;-23
2022/02/15 11:37:01;;;;;;;8.60;5.00;;;;;;;5.72;51.21;99063.88;104971;1272;61272;-23
2022/02/15 11:39:41;;;;;;;7.90;4.20;;;;;;;5.54;51.22;99072.39;104994;1271;61155;-23
2022/02/15 11:42:18;;;;;;;8.20;4.80;;;;;;;5.52;51.32;99075.56;104963;1271;75598;-23
2022/02/15 11:44:46;;;;;;;8.00;4.20;;;;;;;5.56;51.43;99073.60;105090;1271;76117;-23
2022/02/15 11:47:17;;;;;;;5.30;4.20;;;;;;;5.47;51.64;99076.71;105394;1271;74096;-23
2022/02/15 11:49:53;;;;;;;8.90;5.00;;;;;;;5.43;51.75;99074.38;105073;1272;61026;-23
2022/02/15 11:52:21;;;;;;;6.10;4.00;;;;;;;5.30;51.77;99068.92;104809;1271;61768;-23
2022/02/15 11:54:50;;;;;;;7.60;4.10;;;;;;;5.30;52.34;99069.64;105191;1271;75508;-24